Cfl Racer — PJMV — position and weather

sailwx.info

Track history (hours):
 
Tides and Currents Weather Stations Pressure Air Temp Water Temp Dewpoint Dewpoint Depression Visibility Wind Speed Wind Dir Waves Ship Positions

Cfl Racer

Last reported at 2015-Mar-26 15:33 UTC. Time now 2015-Mar-27 05:16 UTC.
Position N 53°01' E 001°09'.

Length 83 m; draft 4.4 m.

Type: Cargo ship. MMSI: 306762000.

Date/timePositionNaut miles runAvg speedWind from/ knotsBaromVisibWave heightAir tempDewpointWater temp
2015-Mar-26 15:33N 53°01' E 001°09'1110.6
2015-Mar-26 14:33N 52°57' E 001°25'10 9.5
2015-Mar-26 13:33N 52°51' E 001°37'9 8.9
2015-Mar-26 12:33N 52°44' E 001°46'8 8.2
2015-Mar-26 11:33N 52°37' E 001°53'10 9.2
2015-Mar-26 10:28N 52°29' E 002°04'6610.8
2015-Mar-26 04:19N 51°41' E 003°19'810.4
2015-Mar-26 03:33N 51°34' E 003°25'9 9.2
2015-Mar-26 02:33N 51°27' E 003°33'8 7.8
2015-Mar-26 01:33N 51°23' E 003°44'5 4.5
2015-Mar-26 00:33N 51°20' E 003°49'6 6.1
2015-Mar-25 23:33N 51°14' E 003°48'3 2.4
2015-Mar-25 22:19N 51°11' E 003°48'0 0.0
2015-Mar-25 21:19N 51°11' E 003°48'0 0.0
2015-Mar-25 20:25N 51°11' E 003°48'0 0.0
2015-Mar-25 19:28N 51°11' E 003°48'0 0.0
2015-Mar-25 18:31N 51°11' E 003°48'0 0.0
2015-Mar-25 17:34N 51°11' E 003°48'0 0.0
2015-Mar-25 16:28N 51°11' E 003°48'0 0.0
2015-Mar-25 15:31N 51°11' E 003°48'0 0.0
2015-Mar-25 14:34N 51°11' E 003°48'0 0.0
2015-Mar-25 13:34N 51°11' E 003°48'0 0.0
2015-Mar-25 12:34N 51°11' E 003°48'0 0.0
2015-Mar-25 11:33N 51°11' E 003°48'0 0.0
2015-Mar-25 10:28N 51°11' E 003°48'0 0.0
2015-Mar-25 09:28N 51°11' E 003°48'0 0.0
2015-Mar-25 08:25N 51°11' E 003°48'0 0.0
2015-Mar-25 07:34N 51°11' E 003°48'0 0.0
2015-Mar-25 06:33N 51°11' E 003°48'0 0.0
2015-Mar-25 05:28N 51°11' E 003°48'0 0.0
2015-Mar-25 04:31N 51°11' E 003°48'0 0.0
2015-Mar-25 03:33N 51°11' E 003°48'0 0.0
2015-Mar-25 02:34N 51°11' E 003°48'0 0.0
2015-Mar-25 01:31N 51°11' E 003°48'0 0.0
2015-Mar-25 00:28N 51°11' E 003°48'0 0.0
2015-Mar-24 23:30N 51°11' E 003°48'0 0.0
2015-Mar-24 22:31N 51°11' E 003°48'0 0.0
2015-Mar-24 21:30N 51°11' E 003°48'0 0.0
2015-Mar-24 20:31N 51°11' E 003°48'0 0.0
2015-Mar-24 19:34N 51°11' E 003°48'0 0.0
2015-Mar-24 18:34N 51°11' E 003°48'0 0.0
2015-Mar-24 17:33N 51°11' E 003°48'0 0.0
2015-Mar-24 16:30N 51°11' E 003°48'0 0.0
2015-Mar-24 15:33N 51°11' E 003°48'0 0.0
2015-Mar-24 14:33N 51°11' E 003°48'0 0.0
2015-Mar-24 13:28N 51°11' E 003°48'0 0.0
2015-Mar-24 12:30N 51°11' E 003°48'0 0.0
2015-Mar-24 11:30N 51°11' E 003°48'0 0.0
2015-Mar-24 10:30N 51°11' E 003°48'0 0.0
2015-Mar-24 09:33N 51°11' E 003°48'0 0.0
2015-Mar-24 08:30N 51°11' E 003°48'0 0.0
2015-Mar-24 07:33N 51°11' E 003°48'0 0.0
2015-Mar-24 06:31N 51°11' E 003°48'0 0.0
2015-Mar-24 05:31N 51°11' E 003°48'0 0.0
2015-Mar-24 04:31N 51°11' E 003°48'0 0.0
2015-Mar-24 03:30N 51°11' E 003°48'0 0.0
2015-Mar-24 02:24N 51°11' E 003°48'0 0.0
2015-Mar-24 01:30N 51°11' E 003°48'0 0.0
2015-Mar-24 00:30N 51°11' E 003°48'1 0.8
2015-Mar-23 23:34N 51°10' E 003°47'1 0.5
2015-Mar-23 22:25N 51°10' E 003°47'0 0.0
2015-Mar-23 21:28N 51°10' E 003°47'0 0.0
2015-Mar-23 20:31N 51°10' E 003°47'0 0.0
2015-Mar-23 19:28N 51°10' E 003°47'0 0.0
2015-Mar-23 18:28N 51°10' E 003°47'0 0.0
2015-Mar-23 17:29N 51°10' E 003°47'0 0.0
2015-Mar-23 16:31N 51°10' E 003°47'0 0.0
2015-Mar-23 15:28N 51°10' E 003°47'0 0.0
2015-Mar-23 14:31N 51°10' E 003°47'0 0.0
2015-Mar-23 13:28N 51°10' E 003°47'0 0.0
2015-Mar-23 12:31N 51°10' E 003°47'0 0.0
2015-Mar-23 11:31N 51°10' E 003°47'0 0.0
2015-Mar-23 10:31N 51°10' E 003°47'0 0.0
2015-Mar-23 09:28N 51°10' E 003°47'0 0.0
2015-Mar-23 08:31N 51°10' E 003°47'0 0.0
2015-Mar-23 07:31N 51°10' E 003°47'0 0.0
2015-Mar-23 06:31N 51°10' E 003°47'0 0.0
2015-Mar-23 05:32N 51°10' E 003°47'0 0.0
2015-Mar-23 04:28N 51°10' E 003°47'0 0.0
2015-Mar-23 03:25N 51°10' E 003°47'0 0.0
2015-Mar-23 02:25N 51°10' E 003°47'0 0.0
2015-Mar-23 01:31N 51°10' E 003°47'0 0.0
2015-Mar-23 00:28N 51°10' E 003°47'0 0.0
2015-Mar-22 23:28N 51°10' E 003°47'0 0.0
2015-Mar-22 22:19N 51°10' E 003°47'0 0.0
2015-Mar-22 21:31N 51°10' E 003°47'0 0.0
2015-Mar-22 20:31N 51°10' E 003°47'0 0.0
2015-Mar-22 19:31N 51°10' E 003°47'0 0.0
2015-Mar-22 18:28N 51°10' E 003°47'0 0.0
2015-Mar-22 17:28N 51°10' E 003°47'0 0.0
2015-Mar-22 16:28N 51°10' E 003°47'0 0.0
2015-Mar-22 15:31N 51°10' E 003°47'0 0.0
2015-Mar-22 14:31N 51°10' E 003°47'0 0.0
2015-Mar-22 13:28N 51°10' E 003°47'0 0.0
2015-Mar-22 12:31N 51°10' E 003°47'0 0.0
2015-Mar-22 11:28N 51°10' E 003°47'0 0.0
2015-Mar-22 10:28N 51°10' E 003°47'0 0.0
2015-Mar-22 09:25N 51°10' E 003°47'0 0.0
2015-Mar-22 08:25N 51°10' E 003°47'0 0.0
2015-Mar-22 07:31N 51°10' E 003°47'0 0.0
2015-Mar-22 06:28N 51°10' E 003°47'0 0.0
2015-Mar-22 05:28N 51°10' E 003°47'0 0.0
2015-Mar-22 04:28N 51°10' E 003°47'0 0.0
2015-Mar-22 03:28N 51°10' E 003°47'0 0.0
2015-Mar-22 02:28N 51°10' E 003°47'0 0.0
2015-Mar-22 01:31N 51°10' E 003°47'0 0.0
2015-Mar-22 00:29N 51°10' E 003°47'0 0.0
2015-Mar-21 23:22N 51°10' E 003°47'0 0.0
2015-Mar-21 22:28N 51°10' E 003°47'0 0.0
2015-Mar-21 21:28N 51°10' E 003°47'0 0.0
2015-Mar-21 20:31N 51°10' E 003°47'0 0.0
2015-Mar-21 19:13N 51°10' E 003°47'0 0.0
2015-Mar-21 18:28N 51°10' E 003°47'0 0.0
2015-Mar-21 17:25N 51°10' E 003°47'0 0.0
2015-Mar-21 16:31N 51°10' E 003°47'0 0.0
2015-Mar-21 15:28N 51°10' E 003°47'0 0.0
2015-Mar-21 14:31N 51°10' E 003°47'0 0.0
2015-Mar-21 13:28N 51°10' E 003°47'0 0.0
2015-Mar-21 12:28N 51°10' E 003°47'0 0.0
2015-Mar-21 11:28N 51°10' E 003°47'0 0.0
2015-Mar-21 10:31N 51°10' E 003°47'0 0.0
2015-Mar-21 09:31N 51°10' E 003°47'0 0.0
2015-Mar-21 08:31N 51°10' E 003°47'0 0.0
2015-Mar-21 07:31N 51°10' E 003°47'0 0.0
2015-Mar-21 06:28N 51°10' E 003°47'0 0.0
2015-Mar-21 05:31N 51°10' E 003°47'0 0.0
2015-Mar-21 04:28N 51°10' E 003°47'0 0.0
2015-Mar-21 03:31N 51°10' E 003°47'0 0.0
2015-Mar-21 02:28N 51°10' E 003°47'0 0.0
2015-Mar-21 01:28N 51°10' E 003°47'0 0.0
2015-Mar-21 00:28N 51°10' E 003°47'0 0.0
2015-Mar-20 23:28N 51°10' E 003°47'0 0.0
2015-Mar-20 22:28N 51°10' E 003°47'0 0.0
2015-Mar-20 21:31N 51°10' E 003°47'0 0.0
2015-Mar-20 20:31N 51°10' E 003°47'0 0.0
2015-Mar-20 19:28N 51°10' E 003°47'0 0.0
2015-Mar-20 18:31N 51°10' E 003°47'6 5.8
2015-Mar-20 17:33N 51°15' E 003°49'5 5.3
2015-Mar-20 16:33N 51°20' E 003°49'5 5.5
2015-Mar-20 15:33N 51°24' E 003°43'8 8.0
2015-Mar-20 14:33N 51°27' E 003°31'9 9.2
2015-Mar-20 13:33N 51°35' E 003°23'1110.2
2015-Mar-20 12:31N 51°44' E 003°14'9 9.0
2015-Mar-20 11:31N 51°51' E 003°04'2311.6
2015-Mar-20 09:33N 52°06' E 002°37'1212.3
2015-Mar-20 08:33N 52°15' E 002°23'1412.8
2015-Mar-20 07:29N 52°25' E 002°07'1213.3
2015-Mar-20 06:33N 52°34' E 001°53'1514.8
2015-Mar-20 05:32N 52°48' E 001°43'1313.5
2015-Mar-20 04:34N 52°58' E 001°30'1212.1
2015-Mar-20 03:33N 53°08' E 001°17'1211.4
2015-Mar-20 02:31N 53°17' E 001°05'3311.0
2015-Mar-19 23:32N 53°43' E 000°32'1010.2
2015-Mar-19 22:33N 53°51' E 000°21'1010.2
2015-Mar-19 21:34N 53°59' E 000°11'10 9.8
2015-Mar-19 20:33N 54°07' E 000°01'10 9.7
2015-Mar-19 19:34N 54°14' W 000°10'1110.6
2015-Mar-19 18:33N 54°23' W 000°20'1211.6
2015-Mar-19 17:33N 54°32' W 000°33'9 8.3
2015-Mar-19 16:30N 54°37' W 000°45'1212.5
2015-Mar-19 15:34N 54°44' W 001°02'1111.2
2015-Mar-19 14:34N 54°50' W 001°18'1 0.8
2015-Mar-19 13:26N 54°50' W 001°20'0 0.0
2015-Mar-19 11:20N 54°50' W 001°20'0 0.0
2015-Mar-19 10:20N 54°50' W 001°20'0 0.0
2015-Mar-19 07:23N 54°50' W 001°20'0 0.0
2015-Mar-19 06:26N 54°50' W 001°20'0 0.0
2015-Mar-18 22:32N 54°50' W 001°20'0 0.0
2015-Mar-18 17:26N 54°50' W 001°20'0 0.0
2015-Mar-18 16:26N 54°50' W 001°20'0 0.0
2015-Mar-18 15:11N 54°50' W 001°20'0 0.0
2015-Mar-18 14:29N 54°50' W 001°20'0 0.0
2015-Mar-18 13:33N 54°50' W 001°20'6 6.2
2015-Mar-18 12:34N 54°47' W 001°11'11 9.9
2015-Mar-18 11:30N 54°41' W 000°56'1010.4
2015-Mar-18 10:33N 54°35' W 000°42'1110.8
2015-Mar-18 09:33N 54°28' W 000°28'1111.3
2015-Mar-18 08:33N 54°19' W 000°16'1211.7
2015-Mar-18 07:33N 54°10' W 000°04'1211.7
2015-Mar-18 06:33N 54°01' E 000°09'61 9.9
2015-Mar-18 00:26N 53°13' E 001°12'1112.3
2015-Mar-17 23:33N 53°05' E 001°24'1312.8
2015-Mar-17 22:33N 52°55' E 001°37'1212.4
2015-Mar-17 21:33N 52°44' E 001°47'1110.9
2015-Mar-17 20:33N 52°34' E 001°56'7210.0
2015-Mar-17 13:24N 51°43' E 003°17'1011.6
2015-Mar-17 12:32N 51°34' E 003°25'1110.8
2015-Mar-17 11:33N 51°26' E 003°36'10 9.8
2015-Mar-17 10:33N 51°20' E 003°49'3 3.3
2015-Mar-17 09:33N 51°17' E 003°50'0 0.0
2015-Mar-17 08:30N 51°17' E 003°50'4 4.2
2015-Mar-17 07:34N 51°13' E 003°48'3 2.6
2015-Mar-17 06:29N 51°11' E 003°48'0 0.0
2015-Mar-17 05:29N 51°11' E 003°48'0 0.0
2015-Mar-17 04:32N 51°11' E 003°48'0 0.0
2015-Mar-17 03:32N 51°11' E 003°48'0 0.0
2015-Mar-17 02:32N 51°11' E 003°48'0 0.0
2015-Mar-17 01:29N 51°11' E 003°48'0 0.0
2015-Mar-17 00:32N 51°11' E 003°48'0 0.0
2015-Mar-16 23:32N 51°11' E 003°48'0 0.0
2015-Mar-16 22:32N 51°11' E 003°48'0 0.0
2015-Mar-16 21:23N 51°11' E 003°48'0 0.0
2015-Mar-16 20:29N 51°11' E 003°48'0 0.0
2015-Mar-16 19:32N 51°11' E 003°48'0 0.0
2015-Mar-16 18:29N 51°11' E 003°48'0 0.0
2015-Mar-16 17:32N 51°11' E 003°48'0 0.0
2015-Mar-16 16:29N 51°11' E 003°48'  
Track history (hours):
 
Tides and Currents Weather Stations Pressure Air Temp Water Temp Dewpoint Dewpoint Depression Visibility Wind Speed Wind Dir Waves Ship Positions

Cfl Racer

Last reported at 2015-Mar-26 15:33 UTC. Time now 2015-Mar-27 05:16 UTC.
Position N 53°01' E 001°09'.

Length 83 m; draft 4.4 m.

Type: Cargo ship. MMSI: 306762000.

Date/timePositionNaut miles runAvg speedWind from/ knotsBaromVisibWave heightAir tempDewpointWater temp
2015-Mar-26 15:33N 53°01' E 001°09'1110.6
2015-Mar-26 14:33N 52°57' E 001°25'10 9.5
2015-Mar-26 13:33N 52°51' E 001°37'9 8.9
2015-Mar-26 12:33N 52°44' E 001°46'8 8.2
2015-Mar-26 11:33N 52°37' E 001°53'10 9.2
2015-Mar-26 10:28N 52°29' E 002°04'6610.8
2015-Mar-26 04:19N 51°41' E 003°19'810.4
2015-Mar-26 03:33N 51°34' E 003°25'9 9.2
2015-Mar-26 02:33N 51°27' E 003°33'8 7.8
2015-Mar-26 01:33N 51°23' E 003°44'5 4.5
2015-Mar-26 00:33N 51°20' E 003°49'6 6.1
2015-Mar-25 23:33N 51°14' E 003°48'3 2.4
2015-Mar-25 22:19N 51°11' E 003°48'0 0.0
2015-Mar-25 21:19N 51°11' E 003°48'0 0.0
2015-Mar-25 20:25N 51°11' E 003°48'0 0.0
2015-Mar-25 19:28N 51°11' E 003°48'0 0.0
2015-Mar-25 18:31N 51°11' E 003°48'0 0.0
2015-Mar-25 17:34N 51°11' E 003°48'0 0.0
2015-Mar-25 16:28N 51°11' E 003°48'0 0.0
2015-Mar-25 15:31N 51°11' E 003°48'0 0.0
2015-Mar-25 14:34N 51°11' E 003°48'0 0.0
2015-Mar-25 13:34N 51°11' E 003°48'0 0.0
2015-Mar-25 12:34N 51°11' E 003°48'0 0.0
2015-Mar-25 11:33N 51°11' E 003°48'0 0.0
2015-Mar-25 10:28N 51°11' E 003°48'0 0.0
2015-Mar-25 09:28N 51°11' E 003°48'0 0.0
2015-Mar-25 08:25N 51°11' E 003°48'0 0.0
2015-Mar-25 07:34N 51°11' E 003°48'0 0.0
2015-Mar-25 06:33N 51°11' E 003°48'0 0.0
2015-Mar-25 05:28N 51°11' E 003°48'0 0.0
2015-Mar-25 04:31N 51°11' E 003°48'0 0.0
2015-Mar-25 03:33N 51°11' E 003°48'0 0.0
2015-Mar-25 02:34N 51°11' E 003°48'0 0.0
2015-Mar-25 01:31N 51°11' E 003°48'0 0.0
2015-Mar-25 00:28N 51°11' E 003°48'0 0.0
2015-Mar-24 23:30N 51°11' E 003°48'0 0.0
2015-Mar-24 22:31N 51°11' E 003°48'0 0.0
2015-Mar-24 21:30N 51°11' E 003°48'0 0.0
2015-Mar-24 20:31N 51°11' E 003°48'0 0.0
2015-Mar-24 19:34N 51°11' E 003°48'0 0.0
2015-Mar-24 18:34N 51°11' E 003°48'0 0.0
2015-Mar-24 17:33N 51°11' E 003°48'0 0.0
2015-Mar-24 16:30N 51°11' E 003°48'0 0.0
2015-Mar-24 15:33N 51°11' E 003°48'0 0.0
2015-Mar-24 14:33N 51°11' E 003°48'0 0.0
2015-Mar-24 13:28N 51°11' E 003°48'0 0.0
2015-Mar-24 12:30N 51°11' E 003°48'0 0.0
2015-Mar-24 11:30N 51°11' E 003°48'0 0.0
2015-Mar-24 10:30N 51°11' E 003°48'0 0.0
2015-Mar-24 09:33N 51°11' E 003°48'0 0.0
2015-Mar-24 08:30N 51°11' E 003°48'0 0.0
2015-Mar-24 07:33N 51°11' E 003°48'0 0.0
2015-Mar-24 06:31N 51°11' E 003°48'0 0.0
2015-Mar-24 05:31N 51°11' E 003°48'0 0.0
2015-Mar-24 04:31N 51°11' E 003°48'0 0.0
2015-Mar-24 03:30N 51°11' E 003°48'0 0.0
2015-Mar-24 02:24N 51°11' E 003°48'0 0.0
2015-Mar-24 01:30N 51°11' E 003°48'0 0.0
2015-Mar-24 00:30N 51°11' E 003°48'1 0.8
2015-Mar-23 23:34N 51°10' E 003°47'1 0.5
2015-Mar-23 22:25N 51°10' E 003°47'0 0.0
2015-Mar-23 21:28N 51°10' E 003°47'0 0.0
2015-Mar-23 20:31N 51°10' E 003°47'0 0.0
2015-Mar-23 19:28N 51°10' E 003°47'0 0.0
2015-Mar-23 18:28N 51°10' E 003°47'0 0.0
2015-Mar-23 17:29N 51°10' E 003°47'0 0.0
2015-Mar-23 16:31N 51°10' E 003°47'0 0.0
2015-Mar-23 15:28N 51°10' E 003°47'0 0.0
2015-Mar-23 14:31N 51°10' E 003°47'0 0.0
2015-Mar-23 13:28N 51°10' E 003°47'0 0.0
2015-Mar-23 12:31N 51°10' E 003°47'0 0.0
2015-Mar-23 11:31N 51°10' E 003°47'0 0.0
2015-Mar-23 10:31N 51°10' E 003°47'0 0.0
2015-Mar-23 09:28N 51°10' E 003°47'0 0.0
2015-Mar-23 08:31N 51°10' E 003°47'0 0.0
2015-Mar-23 07:31N 51°10' E 003°47'0 0.0
2015-Mar-23 06:31N 51°10' E 003°47'0 0.0
2015-Mar-23 05:32N 51°10' E 003°47'0 0.0
2015-Mar-23 04:28N 51°10' E 003°47'0 0.0
2015-Mar-23 03:25N 51°10' E 003°47'0 0.0
2015-Mar-23 02:25N 51°10' E 003°47'0 0.0
2015-Mar-23 01:31N 51°10' E 003°47'0 0.0
2015-Mar-23 00:28N 51°10' E 003°47'0 0.0
2015-Mar-22 23:28N 51°10' E 003°47'0 0.0
2015-Mar-22 22:19N 51°10' E 003°47'0 0.0
2015-Mar-22 21:31N 51°10' E 003°47'0 0.0
2015-Mar-22 20:31N 51°10' E 003°47'0 0.0
2015-Mar-22 19:31N 51°10' E 003°47'0 0.0
2015-Mar-22 18:28N 51°10' E 003°47'0 0.0
2015-Mar-22 17:28N 51°10' E 003°47'0 0.0
2015-Mar-22 16:28N 51°10' E 003°47'0 0.0
2015-Mar-22 15:31N 51°10' E 003°47'0 0.0
2015-Mar-22 14:31N 51°10' E 003°47'0 0.0
2015-Mar-22 13:28N 51°10' E 003°47'0 0.0
2015-Mar-22 12:31N 51°10' E 003°47'0 0.0
2015-Mar-22 11:28N 51°10' E 003°47'0 0.0
2015-Mar-22 10:28N 51°10' E 003°47'0 0.0
2015-Mar-22 09:25N 51°10' E 003°47'0 0.0
2015-Mar-22 08:25N 51°10' E 003°47'0 0.0
2015-Mar-22 07:31N 51°10' E 003°47'0 0.0
2015-Mar-22 06:28N 51°10' E 003°47'0 0.0
2015-Mar-22 05:28N 51°10' E 003°47'0 0.0
2015-Mar-22 04:28N 51°10' E 003°47'0 0.0
2015-Mar-22 03:28N 51°10' E 003°47'0 0.0
2015-Mar-22 02:28N 51°10' E 003°47'0 0.0
2015-Mar-22 01:31N 51°10' E 003°47'0 0.0
2015-Mar-22 00:29N 51°10' E 003°47'0 0.0
2015-Mar-21 23:22N 51°10' E 003°47'0 0.0
2015-Mar-21 22:28N 51°10' E 003°47'0 0.0
2015-Mar-21 21:28N 51°10' E 003°47'0 0.0
2015-Mar-21 20:31N 51°10' E 003°47'0 0.0
2015-Mar-21 19:13N 51°10' E 003°47'0 0.0
2015-Mar-21 18:28N 51°10' E 003°47'0 0.0
2015-Mar-21 17:25N 51°10' E 003°47'0 0.0
2015-Mar-21 16:31N 51°10' E 003°47'0 0.0
2015-Mar-21 15:28N 51°10' E 003°47'0 0.0
2015-Mar-21 14:31N 51°10' E 003°47'0 0.0
2015-Mar-21 13:28N 51°10' E 003°47'0 0.0
2015-Mar-21 12:28N 51°10' E 003°47'0 0.0
2015-Mar-21 11:28N 51°10' E 003°47'0 0.0
2015-Mar-21 10:31N 51°10' E 003°47'0 0.0
2015-Mar-21 09:31N 51°10' E 003°47'0 0.0
2015-Mar-21 08:31N 51°10' E 003°47'0 0.0
2015-Mar-21 07:31N 51°10' E 003°47'0 0.0
2015-Mar-21 06:28N 51°10' E 003°47'0 0.0
2015-Mar-21 05:31N 51°10' E 003°47'0 0.0
2015-Mar-21 04:28N 51°10' E 003°47'0 0.0
2015-Mar-21 03:31N 51°10' E 003°47'0 0.0
2015-Mar-21 02:28N 51°10' E 003°47'0 0.0
2015-Mar-21 01:28N 51°10' E 003°47'0 0.0
2015-Mar-21 00:28N 51°10' E 003°47'0 0.0
2015-Mar-20 23:28N 51°10' E 003°47'0 0.0
2015-Mar-20 22:28N 51°10' E 003°47'0 0.0
2015-Mar-20 21:31N 51°10' E 003°47'0 0.0
2015-Mar-20 20:31N 51°10' E 003°47'0 0.0
2015-Mar-20 19:28N 51°10' E 003°47'0 0.0
2015-Mar-20 18:31N 51°10' E 003°47'6 5.8
2015-Mar-20 17:33N 51°15' E 003°49'5 5.3
2015-Mar-20 16:33N 51°20' E 003°49'5 5.5
2015-Mar-20 15:33N 51°24' E 003°43'8 8.0
2015-Mar-20 14:33N 51°27' E 003°31'9 9.2
2015-Mar-20 13:33N 51°35' E 003°23'1110.2
2015-Mar-20 12:31N 51°44' E 003°14'9 9.0
2015-Mar-20 11:31N 51°51' E 003°04'2311.6
2015-Mar-20 09:33N 52°06' E 002°37'1212.3
2015-Mar-20 08:33N 52°15' E 002°23'1412.8
2015-Mar-20 07:29N 52°25' E 002°07'1213.3
2015-Mar-20 06:33N 52°34' E 001°53'1514.8
2015-Mar-20 05:32N 52°48' E 001°43'1313.5
2015-Mar-20 04:34N 52°58' E 001°30'1212.1
2015-Mar-20 03:33N 53°08' E 001°17'1211.4
2015-Mar-20 02:31N 53°17' E 001°05'3311.0
2015-Mar-19 23:32N 53°43' E 000°32'1010.2
2015-Mar-19 22:33N 53°51' E 000°21'1010.2
2015-Mar-19 21:34N 53°59' E 000°11'10 9.8
2015-Mar-19 20:33N 54°07' E 000°01'10 9.7
2015-Mar-19 19:34N 54°14' W 000°10'1110.6
2015-Mar-19 18:33N 54°23' W 000°20'1211.6
2015-Mar-19 17:33N 54°32' W 000°33'9 8.3
2015-Mar-19 16:30N 54°37' W 000°45'1212.5
2015-Mar-19 15:34N 54°44' W 001°02'1111.2
2015-Mar-19 14:34N 54°50' W 001°18'1 0.8
2015-Mar-19 13:26N 54°50' W 001°20'0 0.0
2015-Mar-19 11:20N 54°50' W 001°20'0 0.0
2015-Mar-19 10:20N 54°50' W 001°20'0 0.0
2015-Mar-19 07:23N 54°50' W 001°20'0 0.0
2015-Mar-19 06:26N 54°50' W 001°20'0 0.0
2015-Mar-18 22:32N 54°50' W 001°20'0 0.0
2015-Mar-18 17:26N 54°50' W 001°20'0 0.0
2015-Mar-18 16:26N 54°50' W 001°20'0 0.0
2015-Mar-18 15:11N 54°50' W 001°20'0 0.0
2015-Mar-18 14:29N 54°50' W 001°20'0 0.0
2015-Mar-18 13:33N 54°50' W 001°20'6 6.2
2015-Mar-18 12:34N 54°47' W 001°11'11 9.9
2015-Mar-18 11:30N 54°41' W 000°56'1010.4
2015-Mar-18 10:33N 54°35' W 000°42'1110.8
2015-Mar-18 09:33N 54°28' W 000°28'1111.3
2015-Mar-18 08:33N 54°19' W 000°16'1211.7
2015-Mar-18 07:33N 54°10' W 000°04'1211.7
2015-Mar-18 06:33N 54°01' E 000°09'61 9.9
2015-Mar-18 00:26N 53°13' E 001°12'1112.3
2015-Mar-17 23:33N 53°05' E 001°24'1312.8
2015-Mar-17 22:33N 52°55' E 001°37'1212.4
2015-Mar-17 21:33N 52°44' E 001°47'1110.9
2015-Mar-17 20:33N 52°34' E 001°56'7210.0
2015-Mar-17 13:24N 51°43' E 003°17'1011.6
2015-Mar-17 12:32N 51°34' E 003°25'1110.8
2015-Mar-17 11:33N 51°26' E 003°36'10 9.8
2015-Mar-17 10:33N 51°20' E 003°49'3 3.3
2015-Mar-17 09:33N 51°17' E 003°50'0 0.0
2015-Mar-17 08:30N 51°17' E 003°50'4 4.2
2015-Mar-17 07:34N 51°13' E 003°48'3 2.6
2015-Mar-17 06:29N 51°11' E 003°48'0 0.0
2015-Mar-17 05:29N 51°11' E 003°48'0 0.0
2015-Mar-17 04:32N 51°11' E 003°48'0 0.0
2015-Mar-17 03:32N 51°11' E 003°48'0 0.0
2015-Mar-17 02:32N 51°11' E 003°48'0 0.0
2015-Mar-17 01:29N 51°11' E 003°48'0 0.0
2015-Mar-17 00:32N 51°11' E 003°48'0 0.0
2015-Mar-16 23:32N 51°11' E 003°48'0 0.0
2015-Mar-16 22:32N 51°11' E 003°48'0 0.0
2015-Mar-16 21:23N 51°11' E 003°48'0 0.0
2015-Mar-16 20:29N 51°11' E 003°48'0 0.0
2015-Mar-16 19:32N 51°11' E 003°48'0 0.0
2015-Mar-16 18:29N 51°11' E 003°48'0 0.0
2015-Mar-16 17:32N 51°11' E 003°48'0 0.0
2015-Mar-16 16:29N 51°11' E 003°48'  

Dump ship's entire track history